createdAt,value
2022-10-02T00:01:14.619Z,2.106
2022-10-02T00:03:16.298Z,3.369
2022-10-02T00:05:17.325Z,6.037
2022-10-02T00:07:19.129Z,2.667
2022-10-02T00:09:20.534Z,4.212
2022-10-02T00:11:22.073Z,3.79
2022-10-02T00:13:23.960Z,6.177
2022-10-02T00:15:25.415Z,4.352
2022-10-02T00:17:26.677Z,0.982
2022-10-02T00:19:28.372Z,1.263
2022-10-02T00:21:30.104Z,9.126
2022-10-02T00:23:31.261Z,1.965
2022-10-02T00:25:32.433Z,7.16
2022-10-02T00:27:33.916Z,3.51
2022-10-02T00:29:35.790Z,4.352
2022-10-02T00:31:37.139Z,1.825
2022-10-02T00:33:38.915Z,7.441
2022-10-02T00:35:39.934Z,7.581
2022-10-02T00:37:41.038Z,7.862
2022-10-02T00:39:42.648Z,3.65
2022-10-02T00:41:44.107Z,9.406
2022-10-02T00:43:45.078Z,8.845
2022-10-02T00:45:46.217Z,3.229
2022-10-02T00:47:47.833Z,6.598
2022-10-02T00:49:49.323Z,6.318
2022-10-02T00:51:50.916Z,2.667
2022-10-02T00:53:52.582Z,4.352
2022-10-02T00:55:54.435Z,7.722
2022-10-02T00:57:55.476Z,4.212
2022-10-02T00:59:57.385Z,6.739
2022-10-02T01:01:58.289Z,7.3
2022-10-02T01:03:59.821Z,1.123
2022-10-02T01:06:01.129Z,10.53
2022-10-02T01:08:02.539Z,9.547
2022-10-02T01:10:04.439Z,8.002
2022-10-02T01:12:05.507Z,3.229
2022-10-02T01:14:07.363Z,6.177
2022-10-02T01:18:09.292Z,7.581
2022-10-02T01:20:11.025Z,4.914
2022-10-02T01:22:12.881Z,4.914
2022-10-02T01:24:14.277Z,5.335
2022-10-02T01:26:15.571Z,4.914
2022-10-02T01:28:16.707Z,9.266
2022-10-02T01:30:17.637Z,6.177
2022-10-02T01:32:18.599Z,12.214
2022-10-02T01:34:20.209Z,4.633
2022-10-02T01:36:21.847Z,5.194
2022-10-02T01:38:23.285Z,4.773
2022-10-02T01:40:24.457Z,8.985
2022-10-02T01:42:26.033Z,4.071
2022-10-02T01:44:27.755Z,1.544
2022-10-02T01:46:29.284Z,6.177
2022-10-02T01:50:31.416Z,3.088
2022-10-02T01:52:32.677Z,6.879
2022-10-02T01:54:34.408Z,3.51
2022-10-02T01:56:35.547Z,5.194
2022-10-02T02:00:37.787Z,5.054
2022-10-02T02:02:39.127Z,2.808
2022-10-02T02:04:40.371Z,3.088
2022-10-02T02:06:42.031Z,3.369
2022-10-02T02:08:42.947Z,2.386
2022-10-02T02:10:44.034Z,6.739
2022-10-02T02:12:45.682Z,3.088
2022-10-02T02:16:47.894Z,7.722
2022-10-02T02:18:49.307Z,2.246
2022-10-02T02:20:50.391Z,5.335
2022-10-02T02:22:51.314Z,6.739
2022-10-02T02:24:53.097Z,5.756
2022-10-02T02:26:54.010Z,10.108
2022-10-02T02:28:55.849Z,4.212
2022-10-02T02:30:57.470Z,7.862
2022-10-02T02:32:58.589Z,8.704
2022-10-02T02:34:59.585Z,7.862
2022-10-02T02:37:00.566Z,4.071
2022-10-02T02:39:01.934Z,6.458
2022-10-02T02:41:02.964Z,6.879
2022-10-02T02:43:04.248Z,11.372
2022-10-02T02:45:06.145Z,9.687
2022-10-02T02:47:07.674Z,5.194
2022-10-02T02:49:08.857Z,9.687
2022-10-02T02:51:10.644Z,5.896
2022-10-02T02:53:11.590Z,7.16
2022-10-02T02:55:12.702Z,8.283
2022-10-02T02:59:16.208Z,8.143
2022-10-02T03:01:17.216Z,16.988
2022-10-02T03:05:20.272Z,6.458
2022-10-02T03:09:23.437Z,8.704
2022-10-02T03:11:24.386Z,6.177
2022-10-02T03:13:25.678Z,2.948
2022-10-02T03:15:27.395Z,5.756
2022-10-02T03:17:28.351Z,5.896
2022-10-02T03:19:29.865Z,8.002
2022-10-02T03:21:31.038Z,9.828
2022-10-02T03:23:32.614Z,6.318
2022-10-02T03:25:34.299Z,10.67
2022-10-02T03:27:36.182Z,8.845
2022-10-02T03:29:37.271Z,9.828
2022-10-02T03:31:39.051Z,5.896
2022-10-02T03:33:40.201Z,4.492
2022-10-02T03:35:41.995Z,9.126
2022-10-02T03:37:43.756Z,7.3
2022-10-02T03:39:45.380Z,8.002
2022-10-02T03:41:46.456Z,7.722
2022-10-02T03:43:47.761Z,5.896
2022-10-02T03:45:50.824Z,6.458
2022-10-02T03:47:50.318Z,4.914
2022-10-02T03:51:53.217Z,4.773
2022-10-02T03:53:54.135Z,5.194
2022-10-02T03:55:55.587Z,4.492
2022-10-02T03:57:56.636Z,8.564
2022-10-02T03:59:58.258Z,7.722
2022-10-02T04:01:59.550Z,4.071
2022-10-02T04:04:00.808Z,5.475
2022-10-02T04:06:02.611Z,9.406
2022-10-02T04:08:04.430Z,9.406
2022-10-02T04:10:05.604Z,3.931
2022-10-02T04:12:06.977Z,3.79
2022-10-02T04:14:08.134Z,5.054
2022-10-02T04:16:09.466Z,8.002
2022-10-02T04:18:11.164Z,4.492
2022-10-02T04:20:12.128Z,1.825
2022-10-02T04:22:13.227Z,1.263
2022-10-02T04:24:14.837Z,3.369
2022-10-02T04:26:16.538Z,3.369
2022-10-02T04:28:18.447Z,5.896
2022-10-02T04:30:19.846Z,2.808
2022-10-02T04:32:20.768Z,5.054
2022-10-02T04:34:21.786Z,6.458
2022-10-02T04:36:23.196Z,10.67
2022-10-02T04:38:25.064Z,5.335
2022-10-02T04:40:26.905Z,6.879
2022-10-02T04:42:28.372Z,4.492
2022-10-02T04:44:29.968Z,9.547
2022-10-02T04:46:31.116Z,4.492
2022-10-02T04:48:32.798Z,8.564
2022-10-02T04:50:33.886Z,4.212
2022-10-02T04:52:35.581Z,6.879
2022-10-02T04:54:36.668Z,8.704
2022-10-02T04:56:37.982Z,7.16
2022-10-02T04:58:39.364Z,9.266
2022-10-02T05:02:42.915Z,3.931
2022-10-02T05:04:44.429Z,3.931
2022-10-02T05:06:46.143Z,10.53
2022-10-02T05:08:47.842Z,6.739
2022-10-02T05:10:49.427Z,10.108
2022-10-02T05:12:50.925Z,5.054
2022-10-02T05:14:52.708Z,5.756
2022-10-02T05:16:53.833Z,5.756
2022-10-02T05:18:54.844Z,3.51
2022-10-02T05:20:56.214Z,8.564
2022-10-02T05:22:57.950Z,7.862
2022-10-02T05:24:59.333Z,9.126
2022-10-02T05:27:00.941Z,10.108
2022-10-02T05:29:02.164Z,5.335
2022-10-02T05:31:03.666Z,3.65
2022-10-02T05:33:04.808Z,8.704
2022-10-02T05:35:06.074Z,11.372
2022-10-02T05:37:07.878Z,7.3
2022-10-02T05:41:11.186Z,6.879
2022-10-02T05:43:12.930Z,7.581
2022-10-02T05:45:14.618Z,5.054
2022-10-02T05:47:16.413Z,5.194
2022-10-02T05:49:17.732Z,8.704
2022-10-02T05:51:19.517Z,1.544
2022-10-02T05:53:21.232Z,8.845
2022-10-02T05:55:22.308Z,5.896
2022-10-02T05:57:23.307Z,4.633
2022-10-02T05:59:24.761Z,8.985
2022-10-02T06:01:26.463Z,10.108
2022-10-02T06:03:28.031Z,6.598
2022-10-02T06:05:29.279Z,3.79
2022-10-02T06:07:30.913Z,9.406
2022-10-02T06:09:32.139Z,6.318
2022-10-02T06:11:33.386Z,4.071
2022-10-02T06:13:34.695Z,10.389
2022-10-02T06:15:36.313Z,7.441
2022-10-02T06:17:37.489Z,9.406
2022-10-02T06:19:38.531Z,7.862
2022-10-02T06:21:39.961Z,5.194
2022-10-02T06:23:41.773Z,7.3
2022-10-02T06:25:43.317Z,2.527
2022-10-02T06:27:44.550Z,7.722
2022-10-02T06:29:46.168Z,7.722
2022-10-02T06:33:49.298Z,4.492
2022-10-02T06:35:50.764Z,5.896
2022-10-02T06:37:52.166Z,6.879
2022-10-02T06:39:53.572Z,2.246
2022-10-02T06:43:56.206Z,5.194
2022-10-02T06:44:39.982Z,5.335
2022-10-02T06:46:40.917Z,5.335
2022-10-02T06:50:43.607Z,6.177
2022-10-02T06:52:44.731Z,8.845
2022-10-02T06:54:46.412Z,7.862
2022-10-02T06:56:47.349Z,5.335
2022-10-02T07:00:50.057Z,11.091
2022-10-02T07:02:51.041Z,4.633
2022-10-02T07:04:52.164Z,4.633
2022-10-02T07:06:53.250Z,3.931
2022-10-02T07:10:55.605Z,2.667
2022-10-02T07:12:56.620Z,4.773
2022-10-02T07:14:58.111Z,11.372
2022-10-02T07:16:59.755Z,3.65
2022-10-02T07:19:00.797Z,5.054
2022-10-02T07:21:02.284Z,4.212
2022-10-02T07:23:04.371Z,7.16
2022-10-02T07:25:04.774Z,4.492
2022-10-02T07:27:06.098Z,4.352
2022-10-02T07:29:07.777Z,7.441
2022-10-02T07:31:09.690Z,4.914
2022-10-02T07:33:10.727Z,4.492
2022-10-02T07:35:12.588Z,2.808
2022-10-02T07:37:14.152Z,2.667
2022-10-02T07:39:16.058Z,3.79
2022-10-02T07:41:17.487Z,3.369
2022-10-02T07:43:18.447Z,1.404
2022-10-02T07:45:20.296Z,4.492
2022-10-02T07:47:22.031Z,3.229
2022-10-02T07:49:23.822Z,1.684
2022-10-02T07:51:25.232Z,2.667
2022-10-02T07:53:26.993Z,1.263
2022-10-02T07:55:28.507Z,5.756
2022-10-02T07:57:30.069Z,2.246
2022-10-02T07:59:31.500Z,0
2022-10-02T08:01:33.201Z,0.14
2022-10-02T08:03:34.141Z,2.808
2022-10-02T08:05:35.544Z,3.088
2022-10-02T08:07:36.472Z,0.561
2022-10-02T08:09:38.332Z,0.982
2022-10-02T08:11:39.964Z,1.684
2022-10-02T08:13:41.205Z,2.527
2022-10-02T08:15:42.131Z,2.527
2022-10-02T08:17:43.779Z,0.561
2022-10-02T08:19:45.623Z,1.263
2022-10-02T08:21:46.560Z,0.421
2022-10-02T08:23:48.048Z,0.14
2022-10-02T08:25:49.695Z,0
2022-10-02T08:27:51.201Z,0
2022-10-02T08:29:52.226Z,0
2022-10-02T08:31:53.276Z,0.421
2022-10-02T08:33:54.468Z,0
2022-10-02T08:35:56.193Z,0
2022-10-02T08:37:57.565Z,0
2022-10-02T08:39:59.038Z,0.421
2022-10-02T08:42:00.159Z,0.842
2022-10-02T08:44:01.963Z,2.106
2022-10-02T08:46:03.237Z,4.212
2022-10-02T08:48:04.277Z,2.948
2022-10-02T08:50:05.762Z,0.14
2022-10-02T08:52:07.524Z,1.123
2022-10-02T08:54:08.519Z,0.14
2022-10-02T08:56:09.424Z,3.229
2022-10-02T08:58:11.091Z,0.561
2022-10-02T09:02:14.094Z,1.263
2022-10-02T09:04:15.114Z,0.421
2022-10-02T09:06:16.075Z,1.123
2022-10-02T09:08:17.356Z,1.404
2022-10-02T09:10:18.631Z,4.352
2022-10-02T09:12:19.724Z,2.948
2022-10-02T09:14:20.734Z,0.28
2022-10-02T09:16:22.114Z,2.808
2022-10-02T09:18:23.180Z,1.684
2022-10-02T09:20:24.931Z,2.948
2022-10-02T09:22:26.395Z,2.948
2022-10-02T09:24:28.041Z,0.842
2022-10-02T09:26:29.669Z,3.79
2022-10-02T09:28:30.840Z,2.808
2022-10-02T09:30:32.192Z,0
2022-10-02T09:32:33.114Z,1.404
2022-10-02T09:34:34.541Z,0
2022-10-02T09:36:36.593Z,0.28
2022-10-02T09:38:39.191Z,1.404
2022-10-02T09:40:38.650Z,1.684
2022-10-02T09:44:40.660Z,1.965
2022-10-02T09:46:42.046Z,3.229
2022-10-02T09:48:43.722Z,2.386
2022-10-02T09:50:45.246Z,3.369
2022-10-02T09:52:46.703Z,5.335
2022-10-02T09:54:48.048Z,0.842
2022-10-02T09:56:49.477Z,5.194
2022-10-02T09:58:50.812Z,2.527
2022-10-02T10:02:53.622Z,1.965
2022-10-02T10:05:05.386Z,0.14
2022-10-02T10:06:56.954Z,2.527
2022-10-02T10:08:58.719Z,0.982
2022-10-02T10:11:00.470Z,4.633
2022-10-02T10:13:01.890Z,2.246
2022-10-02T10:15:04.433Z,1.544
2022-10-02T10:17:04.281Z,3.51
2022-10-02T10:19:06.526Z,1.684
2022-10-02T10:21:07.591Z,1.684
2022-10-02T10:23:09.482Z,2.386
2022-10-02T10:25:11.391Z,1.123
2022-10-02T10:27:12.368Z,0.982
2022-10-02T10:29:14.059Z,0
2022-10-02T10:31:15.672Z,0
2022-10-02T10:33:16.970Z,2.667
2022-10-02T10:35:18.466Z,0.982
2022-10-02T10:37:19.534Z,2.246
2022-10-02T10:39:20.642Z,0.14
2022-10-02T10:41:22.204Z,0
2022-10-02T10:43:23.385Z,2.106
2022-10-02T10:45:24.969Z,0.28
2022-10-02T10:47:26.249Z,2.246
2022-10-02T10:49:27.209Z,1.123
2022-10-02T10:51:28.527Z,0
2022-10-02T10:53:29.549Z,0
2022-10-02T10:55:30.556Z,0
2022-10-02T10:57:31.990Z,0.842
2022-10-02T10:59:33.386Z,0
2022-10-02T11:01:35.413Z,0
2022-10-02T11:03:36.826Z,0
2022-10-02T11:05:38.038Z,0
2022-10-02T11:07:39.463Z,0.421
2022-10-02T11:09:40.670Z,0.14
2022-10-02T11:11:42.403Z,0.982
2022-10-02T11:15:44.985Z,2.106
2022-10-02T11:17:46.449Z,1.263
2022-10-02T11:19:47.950Z,1.825
2022-10-02T11:21:49.757Z,2.667
2022-10-02T11:23:51.147Z,2.808
2022-10-02T11:25:52.334Z,2.527
2022-10-02T11:27:53.390Z,2.106
2022-10-02T11:29:54.796Z,0.561
2022-10-02T11:31:55.776Z,0.14
2022-10-02T11:33:57.238Z,0.28
2022-10-02T11:35:58.442Z,1.123
2022-10-02T11:38:03.746Z,3.51
2022-10-02T11:40:01.524Z,1.404
2022-10-02T11:42:03.312Z,2.667
2022-10-02T11:44:04.456Z,1.404
2022-10-02T11:46:06.147Z,2.386
2022-10-02T11:48:07.133Z,2.948
2022-10-02T11:50:08.654Z,1.825
2022-10-02T11:52:10.209Z,3.088
2022-10-02T11:54:11.555Z,5.475
2022-10-02T11:58:13.684Z,0.561
2022-10-02T12:00:15.417Z,4.352
2022-10-02T12:02:16.906Z,5.054
2022-10-02T12:04:17.482Z,2.808
2022-10-02T12:08:20.298Z,2.808
2022-10-02T12:10:21.721Z,5.054
2022-10-02T12:12:27.041Z,1.684
2022-10-02T12:14:24.551Z,2.527
2022-10-02T12:16:26.324Z,0.842
2022-10-02T12:18:28.030Z,0.702
2022-10-02T12:20:29.503Z,1.263
2022-10-02T12:22:31.244Z,2.386
2022-10-02T12:24:32.833Z,0.561
2022-10-02T12:26:33.851Z,1.825
2022-10-02T12:30:36.101Z,0
2022-10-02T12:32:37.549Z,0.28
2022-10-02T12:34:39.269Z,1.825
2022-10-02T12:36:40.639Z,0
2022-10-02T12:40:43.116Z,1.825
2022-10-02T12:42:44.930Z,0
2022-10-02T12:44:45.950Z,0.28
2022-10-02T12:46:47.198Z,0
2022-10-02T12:48:49.021Z,1.544
2022-10-02T12:50:50.190Z,0.842
2022-10-02T12:52:51.501Z,2.527
2022-10-02T12:54:52.864Z,4.071
2022-10-02T12:56:54.574Z,0.14
2022-10-02T12:58:56.115Z,0.561
2022-10-02T13:00:57.532Z,2.808
2022-10-02T13:03:01.508Z,0
2022-10-02T13:05:00.455Z,0
2022-10-02T13:07:01.548Z,0
2022-10-02T13:09:02.701Z,2.106
2022-10-02T13:11:03.627Z,1.263
2022-10-02T13:13:04.552Z,2.808
2022-10-02T13:15:06.047Z,1.684
2022-10-02T13:17:09.913Z,2.246
2022-10-02T13:19:09.052Z,0.14
2022-10-02T13:21:10.834Z,0.702
2022-10-02T13:23:12.127Z,0.982
2022-10-02T13:25:13.422Z,1.263
2022-10-02T13:27:14.948Z,1.965
2022-10-02T13:29:16.586Z,0.982
2022-10-02T13:30:00.383Z,0
2022-10-02T13:34:03.446Z,0
2022-10-02T13:36:04.719Z,1.684
2022-10-02T13:38:05.930Z,0
2022-10-02T13:40:07.592Z,0
2022-10-02T13:44:10.135Z,0
2022-10-02T13:46:11.745Z,0
2022-10-02T13:48:12.596Z,0
2022-10-02T13:50:17.447Z,0
2022-10-02T13:52:14.926Z,0.561
2022-10-02T13:54:16.128Z,0.14
2022-10-02T13:56:17.262Z,0
2022-10-02T13:58:18.124Z,0.28
2022-10-02T14:00:19.824Z,0
2022-10-02T14:02:21.615Z,1.123
2022-10-02T14:04:23.414Z,0
2022-10-02T14:06:25.090Z,1.404
2022-10-02T14:08:26.262Z,3.229
2022-10-02T14:12:29.694Z,0.28
2022-10-02T14:16:33.274Z,0
2022-10-02T14:18:34.736Z,2.386
2022-10-02T14:20:35.938Z,0.561
2022-10-02T14:22:37.085Z,0
2022-10-02T14:24:38.298Z,1.263
2022-10-02T14:26:39.293Z,2.527
2022-10-02T14:28:40.241Z,0.421
2022-10-02T14:30:41.318Z,1.263
2022-10-02T14:32:42.569Z,0.421
2022-10-02T14:34:43.985Z,0
2022-10-02T14:36:45.468Z,0.421
2022-10-02T14:38:47.182Z,0
2022-10-02T14:40:48.755Z,0
2022-10-02T14:42:50.261Z,0
2022-10-02T14:44:51.476Z,0
2022-10-02T14:46:52.682Z,0
2022-10-02T14:48:53.973Z,0
2022-10-02T14:50:55.487Z,0
2022-10-02T14:52:56.744Z,1.544
2022-10-02T14:54:58.056Z,0
2022-10-02T14:56:59.008Z,0
2022-10-02T14:59:00.758Z,0
2022-10-02T15:01:02.264Z,0
2022-10-02T15:03:03.367Z,0
2022-10-02T15:05:04.793Z,0
2022-10-02T15:07:05.685Z,0
2022-10-02T15:09:07.023Z,0
2022-10-02T15:11:08.391Z,0
2022-10-02T15:13:10.272Z,0
2022-10-02T15:15:10.940Z,0
2022-10-02T15:17:12.037Z,0
2022-10-02T15:19:13.640Z,0
2022-10-02T15:21:15.358Z,0
2022-10-02T15:23:17.214Z,0
2022-10-02T15:25:18.455Z,0
2022-10-02T15:27:20.043Z,0
2022-10-02T15:29:21.170Z,0
2022-10-02T15:31:22.072Z,0
2022-10-02T15:33:23.549Z,0
2022-10-02T15:35:24.607Z,0.14
2022-10-02T15:37:26.197Z,0
2022-10-02T15:39:27.577Z,0
2022-10-02T15:41:28.646Z,0
2022-10-02T15:43:29.996Z,0.561
2022-10-02T15:45:31.164Z,2.106
2022-10-02T15:47:32.411Z,0
2022-10-02T15:49:33.379Z,2.667
2022-10-02T15:51:34.680Z,0.421
2022-10-02T15:53:35.694Z,0
2022-10-02T15:57:37.848Z,1.965
2022-10-02T15:59:39.511Z,0.842
2022-10-02T16:01:43.865Z,1.825
2022-10-02T16:03:41.791Z,0
2022-10-02T16:07:44.921Z,1.684
2022-10-02T16:09:46.672Z,1.404
2022-10-02T16:11:47.653Z,2.386
2022-10-02T16:13:49.250Z,1.965
2022-10-02T16:15:50.800Z,2.948
2022-10-02T16:17:52.449Z,0.421
2022-10-02T16:19:53.915Z,0
2022-10-02T16:21:54.889Z,0
2022-10-02T16:23:56.400Z,3.65
2022-10-02T16:25:57.333Z,1.544
2022-10-02T16:27:58.699Z,0
2022-10-02T16:30:00.453Z,2.106
2022-10-02T16:32:01.547Z,0.702
2022-10-02T16:34:03.408Z,2.948
2022-10-02T16:36:05.066Z,2.386
2022-10-02T16:38:06.281Z,2.386
2022-10-02T16:40:08.185Z,1.404
2022-10-02T16:42:09.205Z,1.263
2022-10-02T16:44:10.562Z,1.404
2022-10-02T16:46:11.815Z,3.229
2022-10-02T16:48:13.203Z,1.965
2022-10-02T16:50:14.609Z,2.106
2022-10-02T16:52:16.432Z,1.965
2022-10-02T16:54:18.190Z,0.842
2022-10-02T16:56:19.839Z,3.088
2022-10-02T16:58:20.902Z,3.79
2022-10-02T17:00:22.198Z,0.702
2022-10-02T17:02:24.018Z,0.28
2022-10-02T17:04:25.795Z,0.28
2022-10-02T17:06:26.822Z,0.561
2022-10-02T17:08:28.231Z,1.263
2022-10-02T17:10:29.396Z,2.246
2022-10-02T17:12:30.792Z,0.842
2022-10-02T17:14:31.825Z,0
2022-10-02T17:16:32.928Z,0.702
2022-10-02T17:18:34.108Z,3.65
2022-10-02T17:20:35.517Z,0
2022-10-02T17:22:36.872Z,0
2022-10-02T17:24:38.259Z,3.088
2022-10-02T17:26:39.731Z,2.667
2022-10-02T17:28:40.605Z,0.842
2022-10-02T17:30:42.036Z,0.14
2022-10-02T17:32:43.440Z,0
2022-10-02T17:34:44.714Z,0
2022-10-02T17:38:46.952Z,0
2022-10-02T17:40:48.058Z,0
2022-10-02T17:42:49.632Z,0
2022-10-02T17:44:51.328Z,2.246
2022-10-02T17:48:54.746Z,0.702
2022-10-02T17:50:55.979Z,0
2022-10-02T17:52:57.185Z,0.14
2022-10-02T17:54:58.110Z,1.404
2022-10-02T17:56:59.712Z,0.14
2022-10-02T17:59:00.916Z,1.544
2022-10-02T18:01:02.431Z,0
2022-10-02T18:03:04.087Z,0
2022-10-02T18:05:05.971Z,0
2022-10-02T18:07:07.071Z,0.421
2022-10-02T18:09:08.563Z,0
2022-10-02T18:11:09.741Z,0
2022-10-02T18:13:11.024Z,0
2022-10-02T18:17:13.854Z,0
2022-10-02T18:19:15.337Z,0
2022-10-02T18:21:16.675Z,0
2022-10-02T18:23:17.653Z,0
2022-10-02T18:25:18.592Z,1.263
2022-10-02T18:27:19.888Z,0.702
2022-10-02T18:29:21.227Z,0
2022-10-02T18:31:33.393Z,0
2022-10-02T18:33:23.567Z,0
2022-10-02T18:35:25.436Z,0
2022-10-02T18:37:27.188Z,0
2022-10-02T18:39:28.602Z,0
2022-10-02T18:41:29.891Z,0
2022-10-02T18:43:30.967Z,0
2022-10-02T18:45:31.954Z,0
2022-10-02T18:47:33.713Z,0
2022-10-02T18:49:34.955Z,0
2022-10-02T18:51:36.168Z,0
2022-10-02T18:53:36.945Z,0
2022-10-02T18:55:38.589Z,0
2022-10-02T18:57:40.185Z,0
2022-10-02T18:59:42.066Z,0
2022-10-02T19:01:43.035Z,0
2022-10-02T19:03:44.054Z,0
2022-10-02T19:05:45.640Z,0
2022-10-02T19:07:46.846Z,0.561
2022-10-02T19:09:48.538Z,0
2022-10-02T19:11:50.472Z,0.421
2022-10-02T19:13:51.451Z,0
2022-10-02T19:15:53.273Z,0
2022-10-02T19:19:55.941Z,0
2022-10-02T19:21:59.324Z,0
2022-10-02T19:23:58.706Z,0
2022-10-02T19:26:00.396Z,0
2022-10-02T19:30:03.198Z,0
2022-10-02T19:32:04.257Z,0
2022-10-02T19:34:06.002Z,0
2022-10-02T19:36:07.212Z,0
2022-10-02T19:38:08.554Z,0
2022-10-02T19:40:13.107Z,0
2022-10-02T19:42:11.076Z,0
2022-10-02T19:44:12.975Z,0
2022-10-02T19:46:14.409Z,0
2022-10-02T19:48:15.432Z,0
2022-10-02T19:50:17.099Z,0
2022-10-02T19:52:18.419Z,0
2022-10-02T19:54:19.324Z,0
2022-10-02T19:56:21.134Z,0
2022-10-02T19:58:22.651Z,0
2022-10-02T20:02:25.470Z,0
2022-10-02T20:04:26.564Z,0
2022-10-02T20:06:27.757Z,0
2022-10-02T20:08:29.255Z,0
2022-10-02T20:12:31.466Z,0
2022-10-02T20:14:33.404Z,0
2022-10-02T20:17:18.429Z,0
2022-10-02T20:19:20.115Z,0
2022-10-02T20:21:21.304Z,0
2022-10-02T20:23:22.713Z,0
2022-10-02T20:25:24.524Z,0
2022-10-02T20:27:25.671Z,0
2022-10-02T20:29:26.868Z,0
2022-10-02T20:31:28.567Z,0
2022-10-02T20:33:29.658Z,0
2022-10-02T20:35:31.561Z,0.14
2022-10-02T20:37:32.891Z,0
2022-10-02T20:39:34.109Z,0
2022-10-02T20:41:35.951Z,0
2022-10-02T20:43:37.623Z,0
2022-10-02T20:45:39.238Z,0
2022-10-02T20:47:40.166Z,0
2022-10-02T20:49:41.653Z,0
2022-10-02T20:51:45.114Z,0
2022-10-02T20:53:44.503Z,0
2022-10-02T20:55:45.634Z,0
2022-10-02T20:58:00.481Z,0
2022-10-02T20:59:48.880Z,0
2022-10-02T21:01:50.745Z,0
2022-10-02T21:03:52.398Z,0
2022-10-02T21:05:54.145Z,0
2022-10-02T21:07:55.209Z,0
2022-10-02T21:09:56.235Z,1.263
2022-10-02T21:11:57.628Z,0
2022-10-02T21:13:59.398Z,0.982
2022-10-02T21:16:00.916Z,1.263
2022-10-02T21:18:02.096Z,0.14
2022-10-02T21:20:03.789Z,0
2022-10-02T21:22:05.632Z,0
2022-10-02T21:24:06.974Z,0
2022-10-02T21:26:08.363Z,0
2022-10-02T21:28:09.889Z,0
2022-10-02T21:30:11.179Z,0
2022-10-02T21:32:12.549Z,1.123
2022-10-02T21:34:14.020Z,0.421
2022-10-02T21:38:17.155Z,0
2022-10-02T21:40:18.996Z,0
2022-10-02T21:42:20.112Z,0
2022-10-02T21:44:21.528Z,0
2022-10-02T21:48:24.855Z,0
2022-10-02T21:50:25.941Z,0
2022-10-02T21:52:27.242Z,0
2022-10-02T21:54:28.576Z,0
2022-10-02T21:56:30.402Z,0
2022-10-02T21:58:31.816Z,0
2022-10-02T22:00:42.272Z,0
2022-10-02T22:02:34.874Z,0
2022-10-02T22:04:36.205Z,0
2022-10-02T22:06:37.729Z,0
2022-10-02T22:08:38.941Z,0
2022-10-02T22:10:40.247Z,0
2022-10-02T22:12:41.598Z,0
2022-10-02T22:14:42.572Z,0
2022-10-02T22:16:44.068Z,0
2022-10-02T22:20:46.874Z,0
2022-10-02T22:22:48.013Z,0
2022-10-02T22:24:49.238Z,0
2022-10-02T22:26:50.487Z,0
2022-10-02T22:30:53.819Z,0
2022-10-02T22:32:55.455Z,0
2022-10-02T22:34:56.882Z,0
2022-10-02T22:36:58.278Z,0
2022-10-02T22:38:59.716Z,0
2022-10-02T22:41:01.022Z,0
2022-10-02T22:43:02.261Z,0
2022-10-02T22:45:03.693Z,0
2022-10-02T22:47:05.298Z,0
2022-10-02T22:49:07.134Z,0.702
2022-10-02T22:51:08.272Z,0.842
2022-10-02T22:53:09.218Z,0
2022-10-02T22:55:10.642Z,0
2022-10-02T22:57:12.432Z,0
2022-10-02T22:59:14.270Z,0.421
2022-10-02T23:01:16.075Z,0.28
2022-10-02T23:03:17.452Z,0
2022-10-02T23:05:18.653Z,0
2022-10-02T23:07:19.644Z,0
2022-10-02T23:09:21.512Z,0
2022-10-02T23:11:22.772Z,0
2022-10-02T23:15:25.980Z,0
2022-10-02T23:17:27.164Z,0
2022-10-02T23:19:28.931Z,0
2022-10-02T23:21:30.553Z,0
2022-10-02T23:23:31.997Z,1.544
2022-10-02T23:25:33.419Z,1.263
2022-10-02T23:27:34.837Z,0.982
2022-10-02T23:29:36.407Z,0
2022-10-02T23:31:38.671Z,0
2022-10-02T23:33:39.961Z,0
2022-10-02T23:35:41.314Z,1.544
2022-10-02T23:37:42.293Z,1.263
2022-10-02T23:39:43.707Z,0.982
2022-10-02T23:41:45.307Z,0
2022-10-02T23:43:47.195Z,2.106
2022-10-02T23:47:50.749Z,1.684
2022-10-02T23:49:52.362Z,0.982
2022-10-02T23:51:53.271Z,0
2022-10-02T23:53:54.734Z,0
2022-10-02T23:57:58.154Z,0
2022-10-02T23:59:59.204Z,0
